• Join FlightAware (Why Join?)
  • Login
  • US Flag 
07:50PM EST


 

Airport Tracker/Info


-or-


 

Live Flight TrackerFlight Track Log ✈ ASA640 ✈ 08-May-2013 ✈ KBLI - KLAS

Flight Track Log - Related Links

Times and Time Zones

All times are in EDT time to prevent confusion due to time zone crossing. See the ASA640 flight status page for this flight to view local times or setup timezone preferences in your user account.

Time Position Orientation Groundspeed Altitude Reporting Facility
EDT Latitude Longitude Course Direction KTS MPH feet Rate Location/Type
08:21PM 48.7333 -122.5667 159° South 160 184 2,000  Level Vancouver Center
08:22PM 48.6833 -122.5833 192° South 220 253 4,100 2,460 Climbing Vancouver Center
08:23PM 48.6172 -122.5950 187° South 292 336 6,800 2,700 Climbing Seattle Center
08:24PM 48.5656 -122.6131 193° South 279 321 8,700 1,980 Climbing Seattle Center
08:25PM 48.1121 -122.6552 164° South  Level FlightAware Approximate
08:25PM 48.4886 -122.6392 193° South 286 329 10,400  Level Seattle Center
08:26PM 48.0018 -122.6008 161° South  Level FlightAware Approximate
08:26PM 48.3986 -122.6700 193° South 344 396 12,400  Level Seattle Center
08:27PM 47.8920 -122.5454 159° South  Level FlightAware Approximate
08:27PM 48.3047 -122.7028 193° South 353 406 15,400  Level Seattle Center
08:28PM 48.2058 -122.7047 181° South 374 430 17,900 2,460 Climbing Seattle Center
08:29PM 48.1056 -122.6506 160° South 383 441 20,500 2,640 Climbing Seattle Center
08:30PM 47.9808 -122.5875 161° South 396 456 23,300 2,400 Climbing Seattle Center
08:31PM 47.8728 -122.5308 161° South 410 472 25,400 1,860 Climbing Seattle Center
08:32PM 47.7611 -122.4747 161° South 423 487 27,200 1,620 Climbing Seattle Center
08:33PM 47.6453 -122.4142 161° South 436 502 28,700 1,560 Climbing Seattle Center
08:34PM 47.5108 -122.3483 162° South 454 522 30,400 1,620 Climbing Seattle Center
08:35PM 47.3886 -122.2897 162° South 464 534 32,100 1,620 Climbing Seattle Center
08:36PM 47.2669 -122.2425 165° South 459 528 33,700 1,440 Climbing Seattle Center
08:37PM 47.1442 -122.1950 165° South 461 531 35,100 1,380 Climbing Seattle Center
08:38PM 47.0206 -122.1464 165° South 463 533 36,600 1,260 Climbing Seattle Center
08:39PM 46.9003 -122.0983 165° South 456 525 37,700 1,080 Climbing Seattle Center
08:40PM 46.7786 -122.0517 165° South 455 524 38,800 600 Climbing Seattle Center
08:41PM 46.6594 -122.0058 165° South 448 516 39,000 60 Climbing Seattle Center
08:42PM 46.5403 -121.9589 165° South 448 516 39,000  Level Seattle Center
08:43PM 46.3972 -121.9033 165° South 447 514 39,000  Level Seattle Center
08:44PM 46.2792 -121.8586 165° South 445 512 39,000  Level Seattle Center
08:45PM 46.1692 -121.8175 165° South 444 511 39,000  Level Seattle Center
08:46PM 46.0503 -121.7717 165° South 444 511 39,000  Level Seattle Center
08:47PM 45.9322 -121.7269 165° South 442 509 39,000  Level Seattle Center
08:48PM 45.7900 -121.6744 166° South 442 509 39,000  Level Seattle Center
08:49PM 45.6714 -121.6289 165° South 443 510 39,000  Level Seattle Center
08:50PM 45.5517 -121.5844 165° South 444 511 39,000  Level Seattle Center
08:51PM 45.4333 -121.5400 165° South 444 511 39,000  Level Seattle Center
08:52PM 45.3136 -121.4947 165° South 446 513 39,000  Level Seattle Center
08:53PM 45.1939 -121.4511 166° South 446 513 39,000  Level Seattle Center
08:54PM 45.0733 -121.4067 165° South 450 518 39,000  Level Seattle Center
08:55PM 44.9522 -121.3622 165° South 451 519 39,000  Level Seattle Center
08:56PM 44.8306 -121.3186 166° South 453 521 39,000  Level Seattle Center
08:57PM 44.7111 -121.2747 165° South 449 517 39,000  Level Seattle Center
08:58PM 44.5675 -121.2239 166° South 448 516 39,000  Level Seattle Center
08:59PM 44.4478 -121.1817 166° South 446 513 39,000  Level Seattle Center
09:00PM 44.3292 -121.1394 166° South 443 510 39,000  Level Seattle Center
09:01PM 44.2108 -121.0956 165° South 443 510 39,000  Level Seattle Center
09:02PM 44.0931 -121.0561 166° South 440 506 39,000  Level Seattle Center
09:03PM 43.9747 -121.0139 166° South 439 505 39,000  Level Seattle Center
09:04PM 43.8539 -121.0081 178° South 438 504 39,000  Level Seattle Center
09:05PM 43.7306 -121.0097 181° South 441 507 39,000  Level Seattle Center
09:06PM 43.6089 -121.0125 181° South 437 503 39,000  Level Seattle Center
09:07PM 43.4797 -121.0200 182° South 441 507 39,000  Level Seattle Center
09:09PM 43.3575 -121.0236 181° South 440 506 39,000  Level Seattle Center
09:10PM 43.2344 -121.0303 182° South 440 506 39,000  Level Seattle Center
09:11PM 43.1108 -121.0336 181° South 444 511 39,000  Level Seattle Center
09:12PM 42.9839 -121.0367 181° South 454 522 39,000  Level Seattle Center
09:13PM 42.8586 -121.0422 182° South 452 520 39,000  Level Seattle Center
09:14PM 42.7353 -121.0464 181° South 443 510 39,000  Level Seattle Center
09:15PM 42.6086 -121.0486 181° South 453 521 39,000  Level Seattle Center
09:16PM 42.4594 -121.0444 179° South 447 514 39,000  Level Seattle Center
09:17PM 42.3547 -120.9633 150° Southeast 435 501 39,000  Level Seattle Center
09:18PM 42.2494 -120.8800 150° Southeast 436 502 39,000  Level Seattle Center
09:19PM 42.1458 -120.7947 149° Southeast 434 499 39,000  Level Seattle Center
09:20PM 42.0403 -120.7100 149° Southeast 440 506 39,000  Level Seattle Center
09:21PM 41.9347 -120.6247 149° Southeast 442 509 39,000  Level Seattle Center
09:22PM 41.8281 -120.5400 149° Southeast 445 512 39,000  Level Seattle Center
09:23PM 41.7231 -120.4575 150° Southeast 438 504 39,000  Level Seattle Center
09:24PM 41.6183 -120.3736 149° Southeast 439 505 39,000  Level Seattle Center
09:25PM 41.5142 -120.2892 149° Southeast 439 505 39,000  Level Seattle Center
09:26PM 41.4078 -120.2042 149° Southeast 443 510 39,000  Level Seattle Center
09:27PM 41.2997 -120.1208 150° Southeast 448 516 39,000  Level Seattle Center
09:28PM 41.1917 -120.0367 150° Southeast 449 517 39,000  Level Seattle Center
09:29PM 41.0861 -119.9525 149° Southeast 444 511 39,000  Level Seattle Center
09:30PM 40.9783 -119.8694 150° Southeast 447 514 39,000  Level Seattle Center
09:31PM 40.8700 -119.7861 150° Southeast 450 518 39,000  Level Oakland Center
09:32PM 40.7622 -119.7019 149° Southeast 450 518 39,000  Level Oakland Center
09:33PM 40.6533 -119.6200 150° Southeast 450 518 39,000  Level Oakland Center
09:34PM 40.5322 -119.5269 150° Southeast 440 506 39,000  Level Oakland Center
09:35PM 40.4258 -119.4450 150° Southeast 442 509 39,000  Level Oakland Center
09:36PM 40.3189 -119.3653 150° Southeast 442 509 39,000  Level Oakland Center
09:37PM 40.2114 -119.2847 150° Southeast 443 510 39,000  Level Oakland Center
09:38PM 40.1050 -119.2036 150° Southeast 442 509 39,000  Level Oakland Center
09:39PM 39.9975 -119.1225 150° Southeast 445 512 39,000  Level Oakland Center
09:40PM 39.8892 -119.0419 150° Southeast 447 514 39,000  Level Oakland Center
09:41PM 39.7803 -118.9614 150° Southeast 448 516 39,000  Level Oakland Center
09:42PM 39.6483 -118.8631 150° Southeast 454 522 39,000  Level Oakland Center
09:43PM 39.5386 -118.7819 150° Southeast 452 520 39,000  Level Oakland Center
09:44PM 39.4256 -118.6983 150° Southeast 453 521 39,000  Level Oakland Center
09:45PM 39.3156 -118.6181 151° Southeast 453 521 39,000  Level Oakland Center
09:46PM 39.2053 -118.5372 150° Southeast 455 524 39,000  Level Oakland Center
09:47PM 39.1108 -118.4683 150° Southeast 455 524 39,000  Level Oakland Center
09:48PM 38.9772 -118.3717 151° Southeast 458 527 39,000  Level Oakland Center
09:49PM 38.8661 -118.2919 151° Southeast 457 526 39,000  Level Oakland Center
09:50PM 38.7550 -118.2108 150° Southeast 459 528 39,000  Level Oakland Center
09:51PM 38.6439 -118.1322 151° Southeast 456 525 39,000  Level Oakland Center
09:52PM 38.5394 -118.0572 151° Southeast 458 527 39,000  Level Oakland Center
09:53PM 38.4292 -117.9767 150° Southeast 457 526 39,000  Level Oakland Center
09:54PM 38.3164 -117.8978 151° Southeast 462 532 39,000  Level Oakland Center
09:55PM 38.1722 -117.8369 162° South 464 534 39,000  Level Oakland Center
09:56PM 38.0428 -117.8497 184° South 469 540 39,000 -480 Level Oakland Center
09:57PM 37.9131 -117.8656 186° South 470 541 38,100 -900 Descending Oakland Center
09:58PM 37.7847 -117.8769 184° South 466 536 37,200 -1,080 Descending Oakland Center
09:59PM 37.6600 -117.8869 184° South 452 520 36,000 -1,260 Descending Oakland Center
10:00PM 37.5389 -117.8992 185° South 438 504 34,700 -1,380 Descending Oakland Center
10:01PM 37.4183 -117.9156 186° South 435 501 33,300 -1,440 Descending Oakland Center
10:02PM 37.3272 -117.8442 148° Southeast 411 473 31,800 -1,140 Descending Oakland Center
10:03PM 37.2733 -117.7303 121° Southeast 384 442 31,000 -420 Descending Oakland Center
10:04PM 37.2186 -117.6164 121° Southeast 382 440 31,000  Level Oakland Center
10:05PM 37.1547 -117.4822 121° Southeast 375 432 31,000  Level Oakland Center
10:06PM 37.1011 -117.3717 121° Southeast 373 429 31,000  Level Oakland Center
10:07PM 37.0483 -117.2597 121° Southeast 373 429 31,000  Level Oakland Center
10:09PM 36.9942 -117.1475 121° Southeast 376 433 31,000 -120 Level Oakland Center
10:10PM 36.9383 -117.0358 122° Southeast 377 434 30,800 -600 Descending Oakland Center
10:11PM 36.8558 -116.9514 141° Southeast 383 441 29,800 -1,200 Descending Oakland Center
10:11PM 36.8078 -116.8989 139° Southeast 383 441 28,900 -1,440 Descending Los Angeles Center
10:12PM 36.7278 -116.8094 138° Southeast 385 443 27,500 -1,380 Descending Los Angeles Center
10:13PM 36.6497 -116.7239 139° Southeast 374 430 26,100 -1,440 Descending Los Angeles Center
10:14PM 36.5736 -116.6397 138° Southeast 369 425 24,600 -1,620 Descending Los Angeles Center
10:15PM 36.4881 -116.5444 138° Southeast 363 418 22,800 -1,620 Descending Los Angeles Center
10:16PM 36.4133 -116.4664 140° Southeast 355 409 21,300 -900 Descending Los Angeles Center
10:17PM 36.3214 -116.4306 163° South 349 402 21,000 -180 Descending Los Angeles Center
10:18PM 36.2672 -116.3486 129° Southeast 345 397 21,000 -180 Level Los Angeles Center
10:19PM 36.2514 -116.2258 99° East 341 392 20,700 -1,020 Descending Los Angeles Center
10:20PM 36.2278 -116.1139 105° East 333 383 19,100 -1,680 Descending Los Angeles Center
10:21PM 36.2139 -116.0067 99° East 325 374 17,500 -1,560 Descending Los Angeles Center
10:22PM 36.1981 -115.9000 100° East 317 365 16,000 -780 Descending Los Angeles Center
10:23PM 36.1622 -115.7917 112° Southeast 320 368 16,000 -360 Level Los Angeles Center
10:25PM 36.1292 -115.6797 110° East 317 365 15,300 -1,140 Descending Los Angeles Center
10:26PM 36.0953 -115.5758 112° Southeast 306 352 13,600 -1,560 Descending Los Angeles Center
10:26PM 36.0694 -115.4975 112° Southeast 299 344 12,400 -1,380 Descending Los Angeles Center
10:27PM 36.0392 -115.4064 112° Southeast 291 335 11,100 -900 Descending Los Angeles Center
10:29PM 36.0258 -115.2989 99° East 271 312 10,400 -960 Descending Los Angeles Center
10:29PM 36.0181 -115.2192 97° East 263 303 9,200 -840 Descending Los Angeles Center
10:31PM 36.0133 -115.1292 94° East 249 287 8,700 -900 Descending Los Angeles Center
10:32PM 36.0083 -115.0550 95° East 211 243 7,400 -1,320 Descending Los Angeles Center
10:32PM 36.0047 -114.9897 94° East 210 242 6,400 -1,080 Descending Los Angeles Center
10:33PM 36.0042 -114.9722 92° East 212 244 6,200 -900 Descending Los Angeles Center
10:33PM 36.0003 -114.9194 95° East 202 232 5,500 -720 Descending Los Angeles Center
10:34PM 36.0014 -114.9022 85° East 210 242 5,500 -720 Level Los Angeles Center
10:35PM 36.0439 -114.9022 360° North 198 228 4,700 -720 Descending Los Angeles Center
10:36PM 36.0661 -114.9639 294° West 181 208 4,200 -600 Descending Los Angeles Center
10:37PM 36.0725 -115.0231 278° West 171 197 3,600 -720 Descending Los Angeles Center
10:38PM 36.0733 -115.0761 271° West 156 180 2,800 -720 Descending Los Angeles Center
10:39PM 36.0733 -115.1314 270° West 158 182 2,000 -660 Descending Los Angeles Center
10:41PM 36.0667 -115.1500 270° West  Level FlightAware Approximate